sensor_id;sensor_type;location;lat;lon;timestamp;P1;durP1;ratioP1;P2;durP2;ratioP2
55710;SDS011;41612;51.994;5.880;2023-11-21T06:01:05;20.75;;;14.00;;
55710;SDS011;41612;51.994;5.880;2023-11-21T06:03:39;34.72;;;13.70;;
55710;SDS011;41612;51.994;5.880;2023-11-21T06:06:05;45.78;;;16.92;;
55710;SDS011;41612;51.994;5.880;2023-11-21T06:08:34;16.55;;;11.40;;
55710;SDS011;41612;51.994;5.880;2023-11-21T06:11:00;35.40;;;17.00;;
55710;SDS011;41612;51.994;5.880;2023-11-21T06:13:28;22.58;;;13.35;;
55710;SDS011;41612;51.994;5.880;2023-11-21T06:15:55;20.50;;;12.80;;
55710;SDS011;41612;51.994;5.880;2023-11-21T06:18:38;25.70;;;16.90;;
55710;SDS011;41612;51.994;5.880;2023-11-21T06:21:13;20.73;;;13.00;;
55710;SDS011;41612;51.994;5.880;2023-11-21T06:30:17;24.65;;;16.05;;
55710;SDS011;41612;51.994;5.880;2023-11-21T06:45:30;30.00;;;18.00;;
55710;SDS011;41612;51.994;5.880;2023-11-21T06:48:15;28.45;;;15.85;;
55710;SDS011;41612;51.994;5.880;2023-11-21T06:50:41;26.00;;;15.63;;
55710;SDS011;41612;51.994;5.880;2023-11-21T07:30:14;42.70;;;20.50;;
55710;SDS011;41612;51.994;5.880;2023-11-21T07:33:22;22.00;;;13.98;;
55710;SDS011;41612;51.994;5.880;2023-11-21T07:36:05;26.88;;;17.30;;
55710;SDS011;41612;51.994;5.880;2023-11-21T07:38:49;26.10;;;17.58;;
55710;SDS011;41612;51.994;5.880;2023-11-21T07:41:20;40.65;;;23.75;;
55710;SDS011;41612;51.994;5.880;2023-11-21T07:57:28;38.47;;;19.92;;
55710;SDS011;41612;51.994;5.880;2023-11-21T10:35:12;8.20;;;5.63;;
55710;SDS011;41612;51.994;5.880;2023-11-21T10:37:39;11.27;;;7.80;;
55710;SDS011;41612;51.994;5.880;2023-11-21T10:40:10;9.93;;;7.07;;
55710;SDS011;41612;51.994;5.880;2023-11-21T10:42:45;12.52;;;8.60;;
55710;SDS011;41612;51.994;5.880;2023-11-21T10:45:12;8.98;;;5.90;;
55710;SDS011;41612;51.994;5.880;2023-11-21T10:47:40;7.22;;;5.70;;
55710;SDS011;41612;51.994;5.880;2023-11-21T10:52:46;8.65;;;5.80;;
55710;SDS011;41612;51.994;5.880;2023-11-21T10:55:20;10.15;;;6.82;;
55710;SDS011;41612;51.994;5.880;2023-11-21T10:57:54;9.00;;;5.97;;
55710;SDS011;41612;51.994;5.880;2023-11-21T11:35:52;8.80;;;6.55;;
55710;SDS011;41612;51.994;5.880;2023-11-21T11:38:22;7.95;;;6.00;;
55710;SDS011;41612;51.994;5.880;2023-11-21T11:40:53;8.70;;;6.50;;
55710;SDS011;41612;51.994;5.880;2023-11-21T11:43:30;9.38;;;6.00;;
55710;SDS011;41612;51.994;5.880;2023-11-21T11:45:58;9.57;;;6.53;;
55710;SDS011;41612;51.994;5.880;2023-11-21T11:48:26;9.82;;;6.68;;
55710;SDS011;41612;51.994;5.880;2023-11-21T11:51:16;10.20;;;7.10;;
55710;SDS011;41612;51.994;5.880;2023-11-21T11:53:45;11.73;;;7.10;;
55710;SDS011;41612;51.994;5.880;2023-11-21T11:56:34;10.20;;;7.18;;
55710;SDS011;41612;51.994;5.880;2023-11-21T12:01:52;9.20;;;5.55;;
55710;SDS011;41612;51.994;5.880;2023-11-21T12:06:50;9.02;;;5.75;;
55710;SDS011;41612;51.994;5.880;2023-11-21T12:09:21;8.85;;;5.60;;
55710;SDS011;41612;51.994;5.880;2023-11-21T12:27:58;10.18;;;5.95;;
55710;SDS011;41612;51.994;5.880;2023-11-21T12:30:26;8.93;;;6.15;;
55710;SDS011;41612;51.994;5.880;2023-11-21T12:44:09;9.02;;;6.47;;
55710;SDS011;41612;51.994;5.880;2023-11-21T12:46:43;10.25;;;7.03;;
55710;SDS011;41612;51.994;5.880;2023-11-21T12:49:11;10.88;;;7.45;;
55710;SDS011;41612;51.994;5.880;2023-11-21T12:51:46;10.52;;;6.68;;
55710;SDS011;41612;51.994;5.880;2023-11-21T12:54:12;8.85;;;6.20;;
55710;SDS011;41612;51.994;5.880;2023-11-21T13:18:52;17.35;;;11.82;;
55710;SDS011;41612;51.994;5.880;2023-11-21T13:21:19;21.40;;;13.65;;
55710;SDS011;41612;51.994;5.880;2023-11-21T13:23:44;15.80;;;8.88;;
55710;SDS011;41612;51.994;5.880;2023-11-21T13:26:11;12.93;;;8.73;;
55710;SDS011;41612;51.994;5.880;2023-11-21T13:28:40;12.13;;;8.77;;
55710;SDS011;41612;51.994;5.880;2023-11-21T13:31:15;16.83;;;10.57;;
55710;SDS011;41612;51.994;5.880;2023-11-21T13:36:24;11.98;;;7.88;;
55710;SDS011;41612;51.994;5.880;2023-11-21T13:44:24;12.07;;;7.97;;
55710;SDS011;41612;51.994;5.880;2023-11-21T13:47:09;11.00;;;7.78;;
55710;SDS011;41612;51.994;5.880;2023-11-21T14:06:53;16.15;;;9.15;;
55710;SDS011;41612;51.994;5.880;2023-11-21T14:10:14;14.55;;;8.93;;
55710;SDS011;41612;51.994;5.880;2023-11-21T14:13:30;13.77;;;9.00;;
55710;SDS011;41612;51.994;5.880;2023-11-21T14:16:41;17.98;;;9.77;;
55710;SDS011;41612;51.994;5.880;2023-11-21T14:22:22;15.65;;;9.63;;
55710;SDS011;41612;51.994;5.880;2023-11-21T14:24:53;16.45;;;9.75;;
55710;SDS011;41612;51.994;5.880;2023-11-21T14:27:20;16.35;;;9.50;;
55710;SDS011;41612;51.994;5.880;2023-11-21T14:29:46;15.60;;;9.32;;
55710;SDS011;41612;51.994;5.880;2023-11-21T14:32:17;15.57;;;9.15;;
55710;SDS011;41612;51.994;5.880;2023-11-21T14:35:22;15.52;;;9.48;;
55710;SDS011;41612;51.994;5.880;2023-11-21T14:41:21;16.27;;;10.10;;
55710;SDS011;41612;51.994;5.880;2023-11-21T14:44:38;19.15;;;11.43;;
55710;SDS011;41612;51.994;5.880;2023-11-21T14:47:51;14.13;;;10.07;;
55710;SDS011;41612;51.994;5.880;2023-11-21T14:50:40;15.90;;;10.02;;
55710;SDS011;41612;51.994;5.880;2023-11-21T14:53:54;15.70;;;8.45;;
55710;SDS011;41612;51.994;5.880;2023-11-21T14:56:53;16.42;;;10.43;;
55710;SDS011;41612;51.994;5.880;2023-11-21T15:02:33;15.02;;;9.50;;
55710;SDS011;41612;51.994;5.880;2023-11-21T15:05:28;13.52;;;9.05;;
55710;SDS011;41612;51.994;5.880;2023-11-21T15:08:20;14.63;;;10.30;;
55710;SDS011;41612;51.994;5.880;2023-11-21T15:10:57;14.70;;;10.02;;
55710;SDS011;41612;51.994;5.880;2023-11-21T15:14:12;17.23;;;10.77;;
55710;SDS011;41612;51.994;5.880;2023-11-21T15:17:16;18.00;;;12.45;;
55710;SDS011;41612;51.994;5.880;2023-11-21T15:19:53;20.95;;;13.05;;
55710;SDS011;41612;51.994;5.880;2023-11-21T15:22:30;20.00;;;13.32;;
55710;SDS011;41612;51.994;5.880;2023-11-21T15:24:55;18.52;;;12.68;;
55710;SDS011;41612;51.994;5.880;2023-11-21T15:27:22;19.02;;;13.25;;
55710;SDS011;41612;51.994;5.880;2023-11-21T15:29:55;20.17;;;11.93;;
55710;SDS011;41612;51.994;5.880;2023-11-21T15:33:28;20.35;;;14.10;;
55710;SDS011;41612;51.994;5.880;2023-11-21T15:36:01;18.00;;;12.80;;
55710;SDS011;41612;51.994;5.880;2023-11-21T15:38:33;20.00;;;13.20;;
55710;SDS011;41612;51.994;5.880;2023-11-21T15:41:00;19.55;;;12.85;;
55710;SDS011;41612;51.994;5.880;2023-11-21T15:43:26;16.55;;;11.35;;
55710;SDS011;41612;51.994;5.880;2023-11-21T15:46:03;20.52;;;12.35;;
55710;SDS011;41612;51.994;5.880;2023-11-21T15:48:35;18.80;;;12.68;;
55710;SDS011;41612;51.994;5.880;2023-11-21T16:04:49;16.50;;;12.48;;
55710;SDS011;41612;51.994;5.880;2023-11-21T16:07:25;19.42;;;13.20;;
55710;SDS011;41612;51.994;5.880;2023-11-21T16:09:59;19.08;;;12.32;;
55710;SDS011;41612;51.994;5.880;2023-11-21T16:12:59;17.27;;;12.60;;
55710;SDS011;41612;51.994;5.880;2023-11-21T16:16:27;17.85;;;11.90;;
55710;SDS011;41612;51.994;5.880;2023-11-21T16:19:42;18.60;;;12.50;;
55710;SDS011;41612;51.994;5.880;2023-11-21T16:25:55;20.95;;;13.50;;
55710;SDS011;41612;51.994;5.880;2023-11-21T16:28:22;18.80;;;11.88;;
55710;SDS011;41612;51.994;5.880;2023-11-21T16:30:57;20.85;;;12.70;;
55710;SDS011;41612;51.994;5.880;2023-11-21T17:07:51;17.40;;;11.98;;
55710;SDS011;41612;51.994;5.880;2023-11-21T18:17:46;19.42;;;12.68;;
55710;SDS011;41612;51.994;5.880;2023-11-21T23:07:15;18.85;;;11.65;;
55710;SDS011;41612;51.994;5.880;2023-11-21T23:09:49;18.33;;;12.25;;
55710;SDS011;41612;51.994;5.880;2023-11-21T23:12:25;20.40;;;12.85;;
55710;SDS011;41612;51.994;5.880;2023-11-21T23:15:01;21.83;;;12.10;;
55710;SDS011;41612;51.994;5.880;2023-11-21T23:17:32;20.10;;;12.05;;
55710;SDS011;41612;51.994;5.880;2023-11-21T23:20:15;18.92;;;11.85;;
